sensor_id;sensor_type;location;lat;lon;timestamp;P1;durP1;ratioP1;P2;durP2;ratioP2
23561;SDS011;11959;49.418;8.728;2022-07-06T00:01:29;3.08;;;1.77;;
23561;SDS011;11959;49.418;8.728;2022-07-06T00:03:55;5.93;;;2.00;;
23561;SDS011;11959;49.418;8.728;2022-07-06T00:06:21;2.20;;;1.67;;
23561;SDS011;11959;49.418;8.728;2022-07-06T00:08:48;5.72;;;1.63;;
23561;SDS011;11959;49.418;8.728;2022-07-06T00:11:14;3.38;;;1.73;;
23561;SDS011;11959;49.418;8.728;2022-07-06T00:13:40;3.20;;;1.60;;
23561;SDS011;11959;49.418;8.728;2022-07-06T00:16:06;3.15;;;1.92;;
23561;SDS011;11959;49.418;8.728;2022-07-06T00:18:31;2.60;;;1.70;;
23561;SDS011;11959;49.418;8.728;2022-07-06T00:20:57;2.47;;;1.58;;
23561;SDS011;11959;49.418;8.728;2022-07-06T00:23:23;3.90;;;1.80;;
23561;SDS011;11959;49.418;8.728;2022-07-06T00:25:49;3.13;;;1.60;;
23561;SDS011;11959;49.418;8.728;2022-07-06T00:28:14;2.78;;;1.67;;
23561;SDS011;11959;49.418;8.728;2022-07-06T00:30:40;2.70;;;1.80;;
23561;SDS011;11959;49.418;8.728;2022-07-06T00:33:06;2.30;;;1.77;;
23561;SDS011;11959;49.418;8.728;2022-07-06T00:35:33;1.88;;;1.67;;
23561;SDS011;11959;49.418;8.728;2022-07-06T00:37:59;4.25;;;1.92;;
23561;SDS011;11959;49.418;8.728;2022-07-06T00:40:26;3.72;;;1.73;;
23561;SDS011;11959;49.418;8.728;2022-07-06T00:42:52;3.00;;;2.00;;
23561;SDS011;11959;49.418;8.728;2022-07-06T00:45:17;3.60;;;1.80;;
23561;SDS011;11959;49.418;8.728;2022-07-06T00:47:44;3.83;;;2.13;;
23561;SDS011;11959;49.418;8.728;2022-07-06T00:50:11;2.78;;;1.92;;
23561;SDS011;11959;49.418;8.728;2022-07-06T00:52:39;3.97;;;1.92;;
23561;SDS011;11959;49.418;8.728;2022-07-06T00:55:09;3.15;;;1.80;;
23561;SDS011;11959;49.418;8.728;2022-07-06T00:57:35;4.13;;;1.90;;
23561;SDS011;11959;49.418;8.728;2022-07-06T01:00:05;3.92;;;1.90;;
23561;SDS011;11959;49.418;8.728;2022-07-06T01:02:33;3.47;;;2.00;;
23561;SDS011;11959;49.418;8.728;2022-07-06T01:05:00;2.85;;;1.80;;
23561;SDS011;11959;49.418;8.728;2022-07-06T01:07:30;2.92;;;1.83;;
23561;SDS011;11959;49.418;8.728;2022-07-06T01:09:56;2.75;;;1.90;;
23561;SDS011;11959;49.418;8.728;2022-07-06T01:12:23;3.05;;;1.70;;
23561;SDS011;11959;49.418;8.728;2022-07-06T01:14:49;5.57;;;1.90;;
23561;SDS011;11959;49.418;8.728;2022-07-06T01:17:15;3.50;;;2.00;;
23561;SDS011;11959;49.418;8.728;2022-07-06T01:19:42;2.35;;;1.70;;
23561;SDS011;11959;49.418;8.728;2022-07-06T01:22:10;3.35;;;2.10;;
23561;SDS011;11959;49.418;8.728;2022-07-06T01:24:36;3.65;;;1.80;;
23561;SDS011;11959;49.418;8.728;2022-07-06T01:27:05;2.67;;;1.98;;
23561;SDS011;11959;49.418;8.728;2022-07-06T01:29:32;2.20;;;1.90;;
23561;SDS011;11959;49.418;8.728;2022-07-06T01:31:58;1.98;;;1.73;;
23561;SDS011;11959;49.418;8.728;2022-07-06T01:34:24;3.50;;;2.13;;
23561;SDS011;11959;49.418;8.728;2022-07-06T01:36:50;3.30;;;1.95;;
23561;SDS011;11959;49.418;8.728;2022-07-06T01:39:15;3.70;;;2.00;;
23561;SDS011;11959;49.418;8.728;2022-07-06T01:41:41;2.80;;;1.70;;
23561;SDS011;11959;49.418;8.728;2022-07-06T01:44:07;4.15;;;1.95;;
23561;SDS011;11959;49.418;8.728;2022-07-06T01:46:33;3.22;;;1.85;;
23561;SDS011;11959;49.418;8.728;2022-07-06T01:48:59;3.20;;;1.98;;
23561;SDS011;11959;49.418;8.728;2022-07-06T01:51:25;4.30;;;1.98;;
23561;SDS011;11959;49.418;8.728;2022-07-06T01:53:50;4.45;;;2.10;;
23561;SDS011;11959;49.418;8.728;2022-07-06T01:56:17;3.03;;;1.95;;
23561;SDS011;11959;49.418;8.728;2022-07-06T01:58:46;3.80;;;2.20;;
23561;SDS011;11959;49.418;8.728;2022-07-06T02:01:13;4.28;;;2.03;;
23561;SDS011;11959;49.418;8.728;2022-07-06T02:03:40;4.13;;;2.17;;
23561;SDS011;11959;49.418;8.728;2022-07-06T02:06:06;3.75;;;2.15;;
23561;SDS011;11959;49.418;8.728;2022-07-06T02:08:33;4.68;;;2.00;;
23561;SDS011;11959;49.418;8.728;2022-07-06T02:10:59;4.35;;;2.17;;
23561;SDS011;11959;49.418;8.728;2022-07-06T02:13:26;3.30;;;2.00;;
23561;SDS011;11959;49.418;8.728;2022-07-06T02:15:51;2.78;;;2.08;;
23561;SDS011;11959;49.418;8.728;2022-07-06T02:18:17;5.00;;;2.22;;
23561;SDS011;11959;49.418;8.728;2022-07-06T02:20:43;3.22;;;2.03;;
23561;SDS011;11959;49.418;8.728;2022-07-06T02:23:09;3.88;;;2.20;;
23561;SDS011;11959;49.418;8.728;2022-07-06T02:25:34;3.85;;;2.20;;
23561;SDS011;11959;49.418;8.728;2022-07-06T02:28:00;4.78;;;2.45;;
23561;SDS011;11959;49.418;8.728;2022-07-06T02:30:26;3.05;;;2.40;;
23561;SDS011;11959;49.418;8.728;2022-07-06T02:32:51;5.35;;;2.20;;
23561;SDS011;11959;49.418;8.728;2022-07-06T02:35:17;4.13;;;2.30;;
23561;SDS011;11959;49.418;8.728;2022-07-06T02:37:43;3.70;;;2.25;;
23561;SDS011;11959;49.418;8.728;2022-07-06T02:40:08;4.88;;;2.47;;
23561;SDS011;11959;49.418;8.728;2022-07-06T02:42:35;2.75;;;2.35;;
23561;SDS011;11959;49.418;8.728;2022-07-06T02:45:00;3.95;;;2.20;;
23561;SDS011;11959;49.418;8.728;2022-07-06T02:47:26;4.90;;;2.33;;
23561;SDS011;11959;49.418;8.728;2022-07-06T02:49:52;4.53;;;2.60;;
23561;SDS011;11959;49.418;8.728;2022-07-06T02:52:18;5.15;;;2.80;;
23561;SDS011;11959;49.418;8.728;2022-07-06T02:54:44;3.60;;;2.22;;
23561;SDS011;11959;49.418;8.728;2022-07-06T02:57:10;4.03;;;2.25;;
23561;SDS011;11959;49.418;8.728;2022-07-06T02:59:36;3.35;;;2.25;;
23561;SDS011;11959;49.418;8.728;2022-07-06T03:02:03;5.93;;;2.55;;
23561;SDS011;11959;49.418;8.728;2022-07-06T03:04:29;4.03;;;2.40;;
23561;SDS011;11959;49.418;8.728;2022-07-06T03:06:55;3.22;;;2.47;;
23561;SDS011;11959;49.418;8.728;2022-07-06T03:09:20;3.78;;;2.63;;
23561;SDS011;11959;49.418;8.728;2022-07-06T03:11:46;4.18;;;2.70;;
23561;SDS011;11959;49.418;8.728;2022-07-06T03:14:12;5.72;;;2.80;;
23561;SDS011;11959;49.418;8.728;2022-07-06T03:16:38;4.90;;;2.50;;
23561;SDS011;11959;49.418;8.728;2022-07-06T03:19:03;2.88;;;2.53;;
23561;SDS011;11959;49.418;8.728;2022-07-06T03:21:29;4.50;;;2.80;;
23561;SDS011;11959;49.418;8.728;2022-07-06T03:23:54;3.20;;;2.47;;
23561;SDS011;11959;49.418;8.728;2022-07-06T03:26:20;5.03;;;2.63;;
23561;SDS011;11959;49.418;8.728;2022-07-06T03:28:46;4.05;;;2.45;;
23561;SDS011;11959;49.418;8.728;2022-07-06T03:31:11;4.10;;;2.75;;
23561;SDS011;11959;49.418;8.728;2022-07-06T03:33:37;4.45;;;2.60;;
23561;SDS011;11959;49.418;8.728;2022-07-06T03:36:03;4.65;;;2.70;;
23561;SDS011;11959;49.418;8.728;2022-07-06T03:38:30;4.80;;;3.03;;
23561;SDS011;11959;49.418;8.728;2022-07-06T03:40:55;5.55;;;2.90;;
23561;SDS011;11959;49.418;8.728;2022-07-06T03:43:21;3.80;;;2.58;;
23561;SDS011;11959;49.418;8.728;2022-07-06T03:45:47;4.63;;;2.65;;
23561;SDS011;11959;49.418;8.728;2022-07-06T03:48:13;3.30;;;2.75;;
23561;SDS011;11959;49.418;8.728;2022-07-06T03:50:38;5.15;;;3.17;;
23561;SDS011;11959;49.418;8.728;2022-07-06T03:53:04;4.50;;;3.03;;
23561;SDS011;11959;49.418;8.728;2022-07-06T03:55:30;3.65;;;2.80;;
23561;SDS011;11959;49.418;8.728;2022-07-06T03:57:55;6.00;;;3.10;;
23561;SDS011;11959;49.418;8.728;2022-07-06T04:00:21;4.63;;;2.75;;
23561;SDS011;11959;49.418;8.728;2022-07-06T04:02:47;5.40;;;2.80;;
23561;SDS011;11959;49.418;8.728;2022-07-06T04:05:12;5.55;;;3.00;;
23561;SDS011;11959;49.418;8.728;2022-07-06T04:07:38;3.70;;;2.70;;
23561;SDS011;11959;49.418;8.728;2022-07-06T04:10:04;2.92;;;2.55;;
23561;SDS011;11959;49.418;8.728;2022-07-06T04:12:30;4.20;;;2.85;;
23561;SDS011;11959;49.418;8.728;2022-07-06T04:14:56;3.92;;;3.13;;
23561;SDS011;11959;49.418;8.728;2022-07-06T04:17:22;3.47;;;2.95;;
23561;SDS011;11959;49.418;8.728;2022-07-06T04:20:07;5.00;;;3.15;;
23561;SDS011;11959;49.418;8.728;2022-07-06T04:22:36;4.88;;;3.25;;
23561;SDS011;11959;49.418;8.728;2022-07-06T04:25:03;6.40;;;2.92;;
23561;SDS011;11959;49.418;8.728;2022-07-06T04:27:29;3.60;;;2.88;;
23561;SDS011;11959;49.418;8.728;2022-07-06T04:29:54;4.38;;;2.45;;
23561;SDS011;11959;49.418;8.728;2022-07-06T04:32:20;6.78;;;2.90;;
23561;SDS011;11959;49.418;8.728;2022-07-06T04:34:46;4.18;;;2.53;;
23561;SDS011;11959;49.418;8.728;2022-07-06T04:37:11;4.00;;;2.67;;
23561;SDS011;11959;49.418;8.728;2022-07-06T04:39:37;3.83;;;2.42;;
23561;SDS011;11959;49.418;8.728;2022-07-06T04:42:03;6.15;;;2.60;;
23561;SDS011;11959;49.418;8.728;2022-07-06T04:44:28;4.38;;;2.35;;
23561;SDS011;11959;49.418;8.728;2022-07-06T04:46:54;2.85;;;2.30;;
23561;SDS011;11959;49.418;8.728;2022-07-06T04:49:20;3.70;;;2.35;;
23561;SDS011;11959;49.418;8.728;2022-07-06T04:51:45;3.97;;;2.40;;
23561;SDS011;11959;49.418;8.728;2022-07-06T04:54:11;5.47;;;3.00;;
23561;SDS011;11959;49.418;8.728;2022-07-06T04:56:36;4.30;;;2.30;;
23561;SDS011;11959;49.418;8.728;2022-07-06T04:59:02;4.85;;;2.50;;
23561;SDS011;11959;49.418;8.728;2022-07-06T05:01:28;4.43;;;2.40;;
23561;SDS011;11959;49.418;8.728;2022-07-06T05:03:53;5.10;;;2.20;;
23561;SDS011;11959;49.418;8.728;2022-07-06T05:06:19;5.15;;;2.30;;
23561;SDS011;11959;49.418;8.728;2022-07-06T05:08:45;2.67;;;2.08;;
23561;SDS011;11959;49.418;8.728;2022-07-06T05:11:11;4.72;;;2.53;;
23561;SDS011;11959;49.418;8.728;2022-07-06T05:13:37;5.15;;;2.67;;
23561;SDS011;11959;49.418;8.728;2022-07-06T05:16:03;4.20;;;2.40;;
23561;SDS011;11959;49.418;8.728;2022-07-06T05:18:29;4.13;;;2.10;;
23561;SDS011;11959;49.418;8.728;2022-07-06T05:20:55;4.63;;;2.55;;
23561;SDS011;11959;49.418;8.728;2022-07-06T05:23:20;3.22;;;2.40;;
23561;SDS011;11959;49.418;8.728;2022-07-06T05:25:46;4.35;;;2.67;;
23561;SDS011;11959;49.418;8.728;2022-07-06T05:28:12;3.30;;;2.45;;
23561;SDS011;11959;49.418;8.728;2022-07-06T05:30:38;3.60;;;2.30;;
23561;SDS011;11959;49.418;8.728;2022-07-06T05:33:03;4.03;;;2.35;;
23561;SDS011;11959;49.418;8.728;2022-07-06T05:35:29;2.30;;;1.90;;
23561;SDS011;11959;49.418;8.728;2022-07-06T05:37:55;4.68;;;2.40;;
23561;SDS011;11959;49.418;8.728;2022-07-06T05:40:21;3.15;;;2.17;;
23561;SDS011;11959;49.418;8.728;2022-07-06T05:42:46;4.25;;;2.33;;
23561;SDS011;11959;49.418;8.728;2022-07-06T05:45:12;3.65;;;2.42;;
23561;SDS011;11959;49.418;8.728;2022-07-06T05:47:38;3.72;;;2.20;;
23561;SDS011;11959;49.418;8.728;2022-07-06T05:50:22;3.40;;;1.92;;
23561;SDS011;11959;49.418;8.728;2022-07-06T05:52:58;6.50;;;2.08;;
23561;SDS011;11959;49.418;8.728;2022-07-06T05:55:25;6.45;;;2.85;;
23561;SDS011;11959;49.418;8.728;2022-07-06T05:57:51;3.92;;;2.35;;
23561;SDS011;11959;49.418;8.728;2022-07-06T06:00:19;4.38;;;2.30;;
23561;SDS011;11959;49.418;8.728;2022-07-06T06:02:45;4.07;;;2.20;;
23561;SDS011;11959;49.418;8.728;2022-07-06T06:05:11;4.95;;;2.22;;
23561;SDS011;11959;49.418;8.728;2022-07-06T06:07:39;4.25;;;2.03;;
23561;SDS011;11959;49.418;8.728;2022-07-06T06:10:12;3.83;;;2.20;;
23561;SDS011;11959;49.418;8.728;2022-07-06T06:12:39;3.47;;;2.13;;
23561;SDS011;11959;49.418;8.728;2022-07-06T06:15:05;4.13;;;2.22;;
23561;SDS011;11959;49.418;8.728;2022-07-06T06:17:32;3.47;;;2.55;;
23561;SDS011;11959;49.418;8.728;2022-07-06T06:19:58;4.43;;;2.13;;
23561;SDS011;11959;49.418;8.728;2022-07-06T06:22:24;5.13;;;2.22;;
23561;SDS011;11959;49.418;8.728;2022-07-06T06:24:50;7.88;;;2.40;;
23561;SDS011;11959;49.418;8.728;2022-07-06T06:27:16;5.00;;;2.25;;
23561;SDS011;11959;49.418;8.728;2022-07-06T06:29:42;3.22;;;2.20;;
23561;SDS011;11959;49.418;8.728;2022-07-06T06:32:09;4.10;;;2.10;;
23561;SDS011;11959;49.418;8.728;2022-07-06T06:34:35;4.32;;;2.30;;
23561;SDS011;11959;49.418;8.728;2022-07-06T06:37:01;2.83;;;2.05;;
23561;SDS011;11959;49.418;8.728;2022-07-06T06:39:27;3.05;;;2.00;;
23561;SDS011;11959;49.418;8.728;2022-07-06T06:41:53;5.75;;;2.40;;
23561;SDS011;11959;49.418;8.728;2022-07-06T06:44:19;4.32;;;2.33;;
23561;SDS011;11959;49.418;8.728;2022-07-06T06:46:47;7.82;;;2.60;;
23561;SDS011;11959;49.418;8.728;2022-07-06T06:49:17;5.20;;;2.50;;
23561;SDS011;11959;49.418;8.728;2022-07-06T06:51:43;4.47;;;2.53;;
23561;SDS011;11959;49.418;8.728;2022-07-06T06:54:09;5.90;;;2.22;;
23561;SDS011;11959;49.418;8.728;2022-07-06T06:56:35;4.22;;;2.20;;
23561;SDS011;11959;49.418;8.728;2022-07-06T06:59:00;4.70;;;2.60;;
23561;SDS011;11959;49.418;8.728;2022-07-06T07:01:27;5.57;;;2.60;;
23561;SDS011;11959;49.418;8.728;2022-07-06T07:03:54;5.63;;;2.92;;
23561;SDS011;11959;49.418;8.728;2022-07-06T07:06:20;5.65;;;2.80;;
23561;SDS011;11959;49.418;8.728;2022-07-06T07:08:46;4.78;;;2.35;;
23561;SDS011;11959;49.418;8.728;2022-07-06T07:11:12;3.63;;;2.22;;
23561;SDS011;11959;49.418;8.728;2022-07-06T07:13:38;4.97;;;2.40;;
23561;SDS011;11959;49.418;8.728;2022-07-06T07:16:04;3.67;;;2.50;;
23561;SDS011;11959;49.418;8.728;2022-07-06T07:18:30;5.15;;;2.50;;
23561;SDS011;11959;49.418;8.728;2022-07-06T07:20:55;7.45;;;2.45;;
23561;SDS011;11959;49.418;8.728;2022-07-06T07:23:21;6.18;;;2.72;;
23561;SDS011;11959;49.418;8.728;2022-07-06T07:25:47;3.28;;;2.05;;
23561;SDS011;11959;49.418;8.728;2022-07-06T07:28:12;3.60;;;1.98;;
23561;SDS011;11959;49.418;8.728;2022-07-06T07:30:38;5.22;;;2.70;;
23561;SDS011;11959;49.418;8.728;2022-07-06T07:33:04;8.02;;;2.90;;
23561;SDS011;11959;49.418;8.728;2022-07-06T07:35:29;3.35;;;2.40;;
23561;SDS011;11959;49.418;8.728;2022-07-06T07:37:55;5.50;;;2.38;;
23561;SDS011;11959;49.418;8.728;2022-07-06T07:40:26;5.85;;;1.98;;
23561;SDS011;11959;49.418;8.728;2022-07-06T07:42:52;3.85;;;2.45;;
23561;SDS011;11959;49.418;8.728;2022-07-06T07:45:18;4.80;;;2.80;;
23561;SDS011;11959;49.418;8.728;2022-07-06T07:47:43;5.05;;;2.85;;
23561;SDS011;11959;49.418;8.728;2022-07-06T07:50:09;6.03;;;2.75;;
23561;SDS011;11959;49.418;8.728;2022-07-06T07:52:35;4.93;;;2.83;;
23561;SDS011;11959;49.418;8.728;2022-07-06T07:55:01;5.57;;;2.67;;
23561;SDS011;11959;49.418;8.728;2022-07-06T07:57:27;4.80;;;2.50;;
23561;SDS011;11959;49.418;8.728;2022-07-06T07:59:53;5.45;;;2.83;;
23561;SDS011;11959;49.418;8.728;2022-07-06T08:02:19;5.38;;;2.80;;
23561;SDS011;11959;49.418;8.728;2022-07-06T08:04:44;4.82;;;2.97;;
23561;SDS011;11959;49.418;8.728;2022-07-06T08:07:10;5.53;;;2.90;;
23561;SDS011;11959;49.418;8.728;2022-07-06T08:09:36;4.15;;;3.08;;
23561;SDS011;11959;49.418;8.728;2022-07-06T08:12:01;4.13;;;2.78;;
23561;SDS011;11959;49.418;8.728;2022-07-06T08:14:27;5.45;;;3.08;;
23561;SDS011;11959;49.418;8.728;2022-07-06T08:16:53;6.75;;;3.20;;
23561;SDS011;11959;49.418;8.728;2022-07-06T08:19:18;4.45;;;3.05;;
23561;SDS011;11959;49.418;8.728;2022-07-06T08:21:44;4.43;;;2.75;;
23561;SDS011;11959;49.418;8.728;2022-07-06T08:24:10;7.35;;;2.95;;
23561;SDS011;11959;49.418;8.728;2022-07-06T08:26:36;3.83;;;2.72;;
23561;SDS011;11959;49.418;8.728;2022-07-06T08:29:02;7.82;;;3.60;;
23561;SDS011;11959;49.418;8.728;2022-07-06T08:31:28;10.55;;;3.50;;
23561;SDS011;11959;49.418;8.728;2022-07-06T08:33:54;3.28;;;2.42;;
23561;SDS011;11959;49.418;8.728;2022-07-06T08:36:20;3.70;;;2.55;;
23561;SDS011;11959;49.418;8.728;2022-07-06T08:38:47;6.93;;;3.20;;
23561;SDS011;11959;49.418;8.728;2022-07-06T08:41:14;8.10;;;3.05;;
23561;SDS011;11959;49.418;8.728;2022-07-06T08:43:41;4.32;;;2.55;;
23561;SDS011;11959;49.418;8.728;2022-07-06T08:46:07;7.88;;;3.05;;
23561;SDS011;11959;49.418;8.728;2022-07-06T08:48:37;5.25;;;3.00;;
23561;SDS011;11959;49.418;8.728;2022-07-06T08:51:04;4.80;;;3.58;;
23561;SDS011;11959;49.418;8.728;2022-07-06T08:53:30;5.05;;;3.15;;
23561;SDS011;11959;49.418;8.728;2022-07-06T08:55:56;5.13;;;3.25;;
23561;SDS011;11959;49.418;8.728;2022-07-06T08:58:26;7.25;;;3.38;;
23561;SDS011;11959;49.418;8.728;2022-07-06T09:00:56;4.95;;;3.20;;
23561;SDS011;11959;49.418;8.728;2022-07-06T09:03:23;5.32;;;3.28;;
23561;SDS011;11959;49.418;8.728;2022-07-06T09:05:49;6.47;;;3.75;;
23561;SDS011;11959;49.418;8.728;2022-07-06T09:08:17;6.60;;;3.38;;
23561;SDS011;11959;49.418;8.728;2022-07-06T09:10:44;7.38;;;3.65;;
23561;SDS011;11959;49.418;8.728;2022-07-06T09:13:10;6.50;;;3.50;;
23561;SDS011;11959;49.418;8.728;2022-07-06T09:15:36;5.32;;;3.60;;
23561;SDS011;11959;49.418;8.728;2022-07-06T09:18:05;6.88;;;4.60;;
23561;SDS011;11959;49.418;8.728;2022-07-06T09:20:32;8.13;;;4.72;;
23561;SDS011;11959;49.418;8.728;2022-07-06T09:22:59;8.07;;;4.53;;
23561;SDS011;11959;49.418;8.728;2022-07-06T09:25:26;5.85;;;3.45;;
23561;SDS011;11959;49.418;8.728;2022-07-06T09:27:52;6.60;;;3.60;;
23561;SDS011;11959;49.418;8.728;2022-07-06T09:30:23;8.63;;;4.63;;
23561;SDS011;11959;49.418;8.728;2022-07-06T09:32:50;6.72;;;4.38;;
23561;SDS011;11959;49.418;8.728;2022-07-06T09:38:02;7.38;;;4.35;;
23561;SDS011;11959;49.418;8.728;2022-07-06T09:40:29;5.88;;;4.07;;
23561;SDS011;11959;49.418;8.728;2022-07-06T09:43:09;5.80;;;3.85;;
23561;SDS011;11959;49.418;8.728;2022-07-06T09:45:36;5.47;;;3.60;;
23561;SDS011;11959;49.418;8.728;2022-07-06T09:48:09;6.85;;;3.88;;
23561;SDS011;11959;49.418;8.728;2022-07-06T09:50:38;6.75;;;4.00;;
23561;SDS011;11959;49.418;8.728;2022-07-06T09:53:05;6.78;;;4.38;;
23561;SDS011;11959;49.418;8.728;2022-07-06T09:55:31;5.25;;;3.90;;
23561;SDS011;11959;49.418;8.728;2022-07-06T09:57:57;7.38;;;3.70;;
23561;SDS011;11959;49.418;8.728;2022-07-06T10:00:22;6.78;;;3.53;;
23561;SDS011;11959;49.418;8.728;2022-07-06T10:02:48;8.40;;;4.57;;
23561;SDS011;11959;49.418;8.728;2022-07-06T10:05:16;6.43;;;3.50;;
23561;SDS011;11959;49.418;8.728;2022-07-06T10:07:43;6.40;;;3.15;;
23561;SDS011;11959;49.418;8.728;2022-07-06T10:10:13;5.07;;;3.13;;
23561;SDS011;11959;49.418;8.728;2022-07-06T10:12:40;6.75;;;3.90;;
23561;SDS011;11959;49.418;8.728;2022-07-06T10:15:09;5.53;;;3.92;;
23561;SDS011;11959;49.418;8.728;2022-07-06T10:17:36;5.68;;;3.50;;
23561;SDS011;11959;49.418;8.728;2022-07-06T10:20:04;3.40;;;2.72;;
23561;SDS011;11959;49.418;8.728;2022-07-06T10:22:30;6.05;;;3.00;;
23561;SDS011;11959;49.418;8.728;2022-07-06T10:24:57;7.38;;;3.47;;
23561;SDS011;11959;49.418;8.728;2022-07-06T10:27:24;5.68;;;3.38;;
23561;SDS011;11959;49.418;8.728;2022-07-06T10:29:50;7.13;;;3.03;;
23561;SDS011;11959;49.418;8.728;2022-07-06T10:32:17;5.32;;;2.85;;
23561;SDS011;11959;49.418;8.728;2022-07-06T10:34:45;7.95;;;2.85;;
23561;SDS011;11959;49.418;8.728;2022-07-06T10:37:21;4.22;;;2.80;;
23561;SDS011;11959;49.418;8.728;2022-07-06T10:39:51;6.65;;;2.28;;
23561;SDS011;11959;49.418;8.728;2022-07-06T10:42:46;5.25;;;2.58;;
23561;SDS011;11959;49.418;8.728;2022-07-06T10:45:19;4.35;;;2.60;;
23561;SDS011;11959;49.418;8.728;2022-07-06T10:50:41;3.78;;;2.20;;
23561;SDS011;11959;49.418;8.728;2022-07-06T10:53:12;2.83;;;2.00;;
23561;SDS011;11959;49.418;8.728;2022-07-06T10:55:40;4.18;;;2.50;;
23561;SDS011;11959;49.418;8.728;2022-07-06T10:58:08;3.53;;;2.35;;
23561;SDS011;11959;49.418;8.728;2022-07-06T11:00:51;4.88;;;2.47;;
23561;SDS011;11959;49.418;8.728;2022-07-06T11:06:00;4.47;;;2.65;;
23561;SDS011;11959;49.418;8.728;2022-07-06T11:11:20;5.05;;;2.58;;
23561;SDS011;11959;49.418;8.728;2022-07-06T11:14:04;5.88;;;2.85;;
23561;SDS011;11959;49.418;8.728;2022-07-06T11:16:39;7.00;;;3.17;;
23561;SDS011;11959;49.418;8.728;2022-07-06T11:19:12;3.92;;;2.40;;
23561;SDS011;11959;49.418;8.728;2022-07-06T11:21:48;4.75;;;2.72;;
23561;SDS011;11959;49.418;8.728;2022-07-06T11:24:22;4.28;;;2.92;;
23561;SDS011;11959;49.418;8.728;2022-07-06T11:26:53;3.42;;;2.40;;
23561;SDS011;11959;49.418;8.728;2022-07-06T11:29:20;2.92;;;2.28;;
23561;SDS011;11959;49.418;8.728;2022-07-06T11:31:49;5.32;;;2.40;;
23561;SDS011;11959;49.418;8.728;2022-07-06T11:34:24;4.53;;;2.40;;
23561;SDS011;11959;49.418;8.728;2022-07-06T11:36:58;5.50;;;2.55;;
23561;SDS011;11959;49.418;8.728;2022-07-06T11:39:27;3.60;;;2.10;;
23561;SDS011;11959;49.418;8.728;2022-07-06T11:41:54;6.32;;;2.08;;
23561;SDS011;11959;49.418;8.728;2022-07-06T11:44:20;4.07;;;2.50;;
23561;SDS011;11959;49.418;8.728;2022-07-06T11:46:46;2.92;;;1.95;;
23561;SDS011;11959;49.418;8.728;2022-07-06T11:49:12;4.10;;;1.92;;
23561;SDS011;11959;49.418;8.728;2022-07-06T11:51:39;4.45;;;1.98;;
23561;SDS011;11959;49.418;8.728;2022-07-06T11:54:12;2.85;;;1.85;;
23561;SDS011;11959;49.418;8.728;2022-07-06T11:56:48;3.47;;;1.65;;
23561;SDS011;11959;49.418;8.728;2022-07-06T11:59:27;4.43;;;1.85;;
23561;SDS011;11959;49.418;8.728;2022-07-06T12:02:09;3.17;;;1.70;;
23561;SDS011;11959;49.418;8.728;2022-07-06T12:04:37;4.00;;;1.65;;
23561;SDS011;11959;49.418;8.728;2022-07-06T12:07:05;3.70;;;1.60;;
23561;SDS011;11959;49.418;8.728;2022-07-06T12:09:33;3.85;;;1.60;;
23561;SDS011;11959;49.418;8.728;2022-07-06T12:12:00;4.22;;;1.65;;
23561;SDS011;11959;49.418;8.728;2022-07-06T12:14:29;4.45;;;1.30;;
23561;SDS011;11959;49.418;8.728;2022-07-06T12:16:56;4.78;;;1.38;;
23561;SDS011;11959;49.418;8.728;2022-07-06T12:19:31;3.05;;;1.75;;
23561;SDS011;11959;49.418;8.728;2022-07-06T12:21:58;3.47;;;1.52;;
23561;SDS011;11959;49.418;8.728;2022-07-06T12:24:25;2.97;;;1.85;;
23561;SDS011;11959;49.418;8.728;2022-07-06T12:26:53;3.28;;;1.60;;
23561;SDS011;11959;49.418;8.728;2022-07-06T12:29:20;4.45;;;2.05;;
23561;SDS011;11959;49.418;8.728;2022-07-06T12:34:20;1.85;;;1.52;;
23561;SDS011;11959;49.418;8.728;2022-07-06T12:36:51;2.92;;;1.98;;
23561;SDS011;11959;49.418;8.728;2022-07-06T12:39:26;3.60;;;1.87;;
23561;SDS011;11959;49.418;8.728;2022-07-06T12:41:54;2.72;;;1.25;;
23561;SDS011;11959;49.418;8.728;2022-07-06T12:44:27;2.53;;;1.40;;
23561;SDS011;11959;49.418;8.728;2022-07-06T12:47:06;2.00;;;1.45;;
23561;SDS011;11959;49.418;8.728;2022-07-06T12:49:34;4.53;;;1.60;;
23561;SDS011;11959;49.418;8.728;2022-07-06T12:52:11;3.80;;;1.83;;
23561;SDS011;11959;49.418;8.728;2022-07-06T12:54:42;2.20;;;1.73;;
23561;SDS011;11959;49.418;8.728;2022-07-06T12:57:12;2.22;;;1.80;;
23561;SDS011;11959;49.418;8.728;2022-07-06T13:04:56;2.58;;;2.13;;
23561;SDS011;11959;49.418;8.728;2022-07-06T13:07:27;3.47;;;2.33;;
23561;SDS011;11959;49.418;8.728;2022-07-06T13:09:54;3.40;;;2.45;;
23561;SDS011;11959;49.418;8.728;2022-07-06T13:12:20;4.55;;;2.35;;
23561;SDS011;11959;49.418;8.728;2022-07-06T13:14:46;4.30;;;2.20;;
23561;SDS011;11959;49.418;8.728;2022-07-06T13:17:12;4.18;;;2.67;;
23561;SDS011;11959;49.418;8.728;2022-07-06T13:19:39;4.00;;;2.60;;
23561;SDS011;11959;49.418;8.728;2022-07-06T13:22:05;2.78;;;2.45;;
23561;SDS011;11959;49.418;8.728;2022-07-06T13:24:31;6.28;;;2.70;;
23561;SDS011;11959;49.418;8.728;2022-07-06T13:26:57;5.03;;;2.83;;
23561;SDS011;11959;49.418;8.728;2022-07-06T13:29:23;5.45;;;2.70;;
23561;SDS011;11959;49.418;8.728;2022-07-06T13:31:49;6.20;;;2.47;;
23561;SDS011;11959;49.418;8.728;2022-07-06T13:34:15;4.85;;;2.63;;
23561;SDS011;11959;49.418;8.728;2022-07-06T13:36:41;3.97;;;2.47;;
23561;SDS011;11959;49.418;8.728;2022-07-06T13:39:06;4.20;;;2.15;;
23561;SDS011;11959;49.418;8.728;2022-07-06T13:41:32;3.42;;;2.20;;
23561;SDS011;11959;49.418;8.728;2022-07-06T13:43:59;3.33;;;2.28;;
23561;SDS011;11959;49.418;8.728;2022-07-06T13:46:28;5.43;;;2.42;;
23561;SDS011;11959;49.418;8.728;2022-07-06T13:48:55;4.40;;;2.13;;
23561;SDS011;11959;49.418;8.728;2022-07-06T13:51:22;2.70;;;1.85;;
23561;SDS011;11959;49.418;8.728;2022-07-06T13:53:52;2.47;;;1.88;;
23561;SDS011;11959;49.418;8.728;2022-07-06T13:56:18;4.93;;;2.10;;
23561;SDS011;11959;49.418;8.728;2022-07-06T13:58:44;3.70;;;2.08;;
23561;SDS011;11959;49.418;8.728;2022-07-06T14:01:09;4.95;;;2.05;;
23561;SDS011;11959;49.418;8.728;2022-07-06T14:03:36;5.25;;;1.85;;
23561;SDS011;11959;49.418;8.728;2022-07-06T14:06:03;2.65;;;1.80;;
23561;SDS011;11959;49.418;8.728;2022-07-06T14:08:29;4.38;;;2.15;;
23561;SDS011;11959;49.418;8.728;2022-07-06T14:10:55;4.10;;;2.00;;
23561;SDS011;11959;49.418;8.728;2022-07-06T14:13:21;3.85;;;2.00;;
23561;SDS011;11959;49.418;8.728;2022-07-06T14:15:48;3.08;;;2.05;;
23561;SDS011;11959;49.418;8.728;2022-07-06T14:18:14;3.47;;;1.60;;
23561;SDS011;11959;49.418;8.728;2022-07-06T14:20:42;4.82;;;2.20;;
23561;SDS011;11959;49.418;8.728;2022-07-06T14:23:11;4.00;;;2.03;;
23561;SDS011;11959;49.418;8.728;2022-07-06T14:25:38;3.25;;;1.80;;
23561;SDS011;11959;49.418;8.728;2022-07-06T14:28:04;3.05;;;1.88;;
23561;SDS011;11959;49.418;8.728;2022-07-06T14:30:31;3.10;;;1.65;;
23561;SDS011;11959;49.418;8.728;2022-07-06T14:32:57;3.75;;;1.90;;
23561;SDS011;11959;49.418;8.728;2022-07-06T14:35:23;3.75;;;1.92;;
23561;SDS011;11959;49.418;8.728;2022-07-06T14:37:49;2.72;;;1.70;;
23561;SDS011;11959;49.418;8.728;2022-07-06T14:40:15;3.72;;;1.70;;
23561;SDS011;11959;49.418;8.728;2022-07-06T14:42:41;2.17;;;1.48;;
23561;SDS011;11959;49.418;8.728;2022-07-06T14:45:07;4.95;;;1.80;;
23561;SDS011;11959;49.418;8.728;2022-07-06T14:47:33;3.65;;;1.42;;
23561;SDS011;11959;49.418;8.728;2022-07-06T14:50:01;3.35;;;1.33;;
23561;SDS011;11959;49.418;8.728;2022-07-06T14:52:27;3.72;;;1.70;;
23561;SDS011;11959;49.418;8.728;2022-07-06T14:54:52;2.83;;;1.02;;
23561;SDS011;11959;49.418;8.728;2022-07-06T14:57:18;3.97;;;1.33;;
23561;SDS011;11959;49.418;8.728;2022-07-06T14:59:44;2.45;;;1.15;;
23561;SDS011;11959;49.418;8.728;2022-07-06T15:02:11;2.42;;;1.30;;
23561;SDS011;11959;49.418;8.728;2022-07-06T15:04:36;2.03;;;1.23;;
23561;SDS011;11959;49.418;8.728;2022-07-06T15:07:02;1.95;;;1.63;;